Time;durP1;ratioP1;P1;durP2;ratioP2;P2;SDS_P1;SDS_P2;PMS_P1;PMS_P2;Temp;Humidity;BMP_temperature;BMP_pressure;BME280_temperature;BME280_humidity;BME280_pressure;Samples;Min_cycle;Max_cycle;Signal;HPM_P1;HPM_P2
2022/06/27 00:01:26;;;;;;;13.25;6.20;;;17.50;99.90;;;;;;5015627;28;20126;-93
2022/06/27 00:03:52;;;;;;;10.48;6.45;;;17.50;99.90;;;;;;5016014;28;20050;-93
2022/06/27 00:06:19;;;;;;;9.10;6.85;;;17.50;99.90;;;;;;5016091;28;20128;-93
2022/06/27 00:08:50;;;;;;;14.15;7.78;;;17.50;99.90;;;;;;5015129;28;20050;-94
2022/06/27 00:11:20;;;;;;;10.95;7.53;;;17.50;99.90;;;;;;5031317;28;20177;-93
2022/06/27 00:14:04;;;;;;;10.50;7.70;;;17.50;99.90;;;;;;5015435;28;20049;-93
2022/06/27 00:17:16;;;;;;;8.85;7.63;;;17.50;99.90;;;;;;5015331;28;20049;-93
2022/06/27 00:19:58;;;;;;;11.63;7.38;;;17.40;99.90;;;;;;4948854;28;20089;-93
2022/06/27 00:22:49;;;;;;;9.48;7.88;;;17.40;99.90;;;;;;5014920;28;20060;-93
2022/06/27 00:28:46;;;;;;;10.95;8.25;;;17.40;99.90;;;;;;4977913;28;20050;-93
2022/06/27 00:31:55;;;;;;;16.00;8.82;;;17.40;99.90;;;;;;4916274;28;20057;-93
2022/06/27 00:38:35;;;;;;;12.35;8.27;;;17.40;99.90;;;;;;4920584;28;20054;-95
2022/06/27 00:41:18;;;;;;;14.82;8.15;;;17.40;99.90;;;;;;4970529;28;20085;-94
2022/06/27 00:44:27;;;;;;;12.70;8.15;;;17.40;99.90;;;;;;5015045;28;20045;-94
2022/06/27 00:47:27;;;;;;;;;;;;;;;;;;;;;
2022/06/27 00:50:37;;;;;;;17.83;8.13;;;17.40;99.90;;;;;;4985484;28;20050;-95
2022/06/27 00:53:42;;;;;;;14.90;8.00;;;17.30;99.90;;;;;;5015176;28;20050;-96
2022/06/27 00:56:15;;;;;;;12.82;8.25;;;17.40;99.90;;;;;;4998558;28;20053;-95
2022/06/27 00:58:52;;;;;;;;;;;17.30;99.90;;;;;;5031373;28;20104;-94
2022/06/27 01:04:31;;;;;;;10.98;7.88;;;17.30;99.90;;;;;;4963667;28;20051;-95
2022/06/27 01:07:16;;;;;;;10.23;7.55;;;17.30;99.90;;;;;;5030790;28;20070;-94
2022/06/27 01:10:18;;;;;;;15.45;8.10;;;17.30;99.90;;;;;;5028749;28;20418;-94
2022/06/27 01:12:59;;;;;;;10.73;8.10;;;17.30;99.90;;;;;;4991853;28;20144;-94
2022/06/27 01:15:40;;;;;;;9.95;7.95;;;17.20;99.90;;;;;;5013816;28;20046;-95
2022/06/27 01:18:45;;;;;;;9.82;7.00;;;17.40;99.90;;;;;;5006547;28;20062;-95
2022/06/27 01:21:56;;;;;;;12.73;8.20;;;17.30;99.90;;;;;;5004922;28;20097;-94
2022/06/27 01:24:58;;;;;;;12.93;8.73;;;17.30;99.90;;;;;;4979545;28;20062;-95
2022/06/27 01:27:59;;;;;;;11.70;7.97;;;17.20;99.90;;;;;;4996733;28;20054;-94
2022/06/27 01:30:31;;;;;;;16.98;9.82;;;17.20;99.90;;;;;;4992003;28;20057;-94
2022/06/27 01:39:29;;;;;;;13.57;9.50;;;17.10;99.90;;;;;;5004439;28;20050;-94
2022/06/27 01:42:14;;;;;;;10.75;8.50;;;17.10;99.90;;;;;;4997243;28;20053;-95
2022/06/27 01:45:00;;;;;;;12.63;8.80;;;17.10;99.90;;;;;;4996669;28;20065;-95
2022/06/27 01:51:14;;;;;;;12.15;9.20;;;17.00;99.90;;;;;;4945746;28;20054;-95
2022/06/27 01:53:43;;;;;;;12.90;10.00;;;17.10;99.90;;;;;;5002735;28;20490;-95
2022/06/27 01:56:14;;;;;;;13.13;9.27;;;17.20;99.90;;;;;;4996920;28;20092;-96
2022/06/27 01:59:31;;;;;;;13.48;9.27;;;17.10;99.90;;;;;;5013600;28;20057;-96
2022/06/27 02:02:44;;;;;;;17.90;10.23;;;17.10;99.90;;;;;;4996776;28;20050;-94
2022/06/27 02:08:47;;;;;;;16.85;10.05;;;17.20;99.90;;;;;;4975520;28;20081;-95
2022/06/27 02:11:56;;;;;;;12.35;9.52;;;17.10;99.90;;;;;;4998004;28;20093;-95
2022/06/27 02:14:51;;;;;;;10.75;8.50;;;17.10;99.90;;;;;;4997869;28;20038;-95
2022/06/27 02:17:38;;;;;;;14.75;10.00;;;17.00;99.90;;;;;;5012996;28;20050;-95
2022/06/27 02:20:42;;;;;;;15.55;11.18;;;17.00;99.90;;;;;;4996968;28;20490;-95
2022/06/27 02:23:27;;;;;;;14.40;9.63;;;17.10;99.90;;;;;;4970171;28;20104;-96
2022/06/27 02:26:29;;;;;;;11.07;7.80;;;17.10;99.90;;;;;;5014111;28;20073;-95
2022/06/27 02:29:31;;;;;;;11.48;8.35;;;17.00;99.90;;;;;;4998340;28;20057;-93
2022/06/27 02:32:52;;;;;;;13.02;10.07;;;17.00;99.90;;;;;;5004630;28;20054;-94
2022/06/27 02:35:08;;;;;;;13.13;10.48;;;17.00;99.90;;;;;;5006057;28;20105;-96
2022/06/27 02:38:02;;;;;;;12.05;9.13;;;17.00;99.90;;;;;;5012854;28;20046;-95
2022/06/27 02:40:51;;;;;;;16.15;11.20;;;17.10;99.90;;;;;;4951404;28;20060;-96
2022/06/27 02:43:37;;;;;;;12.05;9.95;;;17.00;99.90;;;;;;5016406;28;20076;-96
2022/06/27 02:46:30;;;;;;;15.60;10.77;;;17.00;99.90;;;;;;5015799;28;20081;-96
2022/06/27 02:49:06;;;;;;;15.43;11.48;;;17.00;99.90;;;;;;5017164;28;20043;-96
2022/06/27 02:51:46;;;;;;;17.88;11.63;;;17.00;99.90;;;;;;5015593;28;20485;-96
2022/06/27 02:54:19;;;;;;;17.85;10.77;;;17.00;99.90;;;;;;5015974;28;20040;-96
2022/06/27 02:57:17;;;;;;;;;;;;;;;;;;;;;
2022/06/27 02:59:51;;;;;;;16.30;11.85;;;16.90;99.90;;;;;;5032207;28;20053;-95
2022/06/27 03:02:18;;;;;;;15.73;11.98;;;16.90;99.90;;;;;;5014464;28;20490;-96
2022/06/27 03:04:52;;;;;;;18.35;11.88;;;16.90;99.90;;;;;;5016115;28;20064;-95
2022/06/27 03:07:17;;;;;;;18.27;12.27;;;16.80;99.90;;;;;;5014944;28;20041;-95
2022/06/27 03:10:02;;;;;;;17.48;11.95;;;16.80;99.90;;;;;;5015827;28;20144;-95
2022/06/27 03:12:31;;;;;;;20.48;12.20;;;16.90;99.90;;;;;;5015731;28;20088;-94
2022/06/27 03:14:57;;;;;;;19.52;13.13;;;16.80;99.90;;;;;;5015047;28;20084;-95
2022/06/27 03:17:28;;;;;;;18.08;12.02;;;16.80;99.90;;;;;;5010369;28;20534;-96
2022/06/27 03:20:09;;;;;;;16.10;12.52;;;16.80;99.90;;;;;;4995812;28;20410;-95
2022/06/27 03:22:35;;;;;;;17.92;13.30;;;16.70;99.90;;;;;;4996062;28;20046;-95
2022/06/27 03:25:04;;;;;;;19.85;14.05;;;16.80;99.90;;;;;;4995321;28;20414;-94
2022/06/27 03:27:30;;;;;;;18.27;13.18;;;16.80;99.90;;;;;;4995529;28;20038;-95
2022/06/27 03:29:56;;;;;;;18.38;14.60;;;16.80;99.90;;;;;;4995667;28;20104;-95
2022/06/27 03:32:22;;;;;;;22.13;13.77;;;16.80;99.90;;;;;;4994880;28;20411;-95
2022/06/27 03:34:54;;;;;;;20.75;14.43;;;16.80;99.90;;;;;;4995181;28;20130;-95
2022/06/27 03:37:22;;;;;;;20.42;14.90;;;16.80;99.90;;;;;;4994798;28;20050;-95
2022/06/27 03:39:53;;;;;;;21.23;14.57;;;16.80;99.90;;;;;;4995769;28;20145;-95
2022/06/27 03:42:19;;;;;;;20.05;13.90;;;16.80;99.90;;;;;;4994938;28;20085;-95
2022/06/27 03:44:47;;;;;;;19.80;15.18;;;16.80;99.90;;;;;;4995857;28;20089;-95
2022/06/27 03:47:19;;;;;;;22.13;14.45;;;16.80;99.90;;;;;;4993461;28;20045;-94
2022/06/27 03:50:00;;;;;;;19.08;14.27;;;16.80;99.90;;;;;;4994735;28;20061;-95
2022/06/27 03:52:29;;;;;;;14.05;11.18;;;16.80;99.90;;;;;;5010757;28;20488;-95
2022/06/27 03:55:00;;;;;;;21.75;13.68;;;16.80;99.90;;;;;;5015168;28;20361;-95
2022/06/27 03:57:26;;;;;;;18.00;12.30;;;16.70;99.90;;;;;;5014927;28;20050;-95
2022/06/27 03:59:55;;;;;;;16.17;11.23;;;16.80;99.90;;;;;;5014919;28;20050;-95
2022/06/27 04:02:40;;;;;;;15.43;11.38;;;16.80;99.90;;;;;;5015146;28;20049;-95
2022/06/27 04:05:12;;;;;;;15.32;11.80;;;16.80;99.90;;;;;;5014945;28;20111;-94
2022/06/27 04:07:41;;;;;;;14.85;10.45;;;16.80;99.90;;;;;;5016746;28;20068;-95
2022/06/27 04:10:12;;;;;;;17.15;11.35;;;16.80;99.90;;;;;;5018054;28;20053;-95
2022/06/27 04:12:41;;;;;;;12.77;10.18;;;16.80;99.90;;;;;;5016131;28;20092;-94
2022/06/27 04:15:19;;;;;;;19.20;10.75;;;16.80;99.90;;;;;;5014885;28;20069;-96
2022/06/27 04:17:50;;;;;;;12.90;9.52;;;16.80;99.90;;;;;;5017019;28;20128;-96
2022/06/27 04:20:22;;;;;;;14.52;10.32;;;16.70;99.90;;;;;;5016517;28;20076;-96
2022/06/27 04:22:58;;;;;;;15.23;9.70;;;16.90;99.90;;;;;;5014637;28;20489;-93
2022/06/27 04:25:29;;;;;;;17.08;9.48;;;16.90;99.90;;;;;;5015382;28;20049;-95
2022/06/27 04:28:16;;;;;;;11.65;8.50;;;16.90;99.90;;;;;;5015492;28;20034;-96
2022/06/27 04:30:44;;;;;;;16.20;9.50;;;16.90;99.90;;;;;;5014871;28;20081;-95
2022/06/27 04:33:30;;;;;;;12.48;9.88;;;16.90;99.90;;;;;;5015831;28;20432;-95
2022/06/27 04:36:02;;;;;;;12.95;9.05;;;16.90;99.90;;;;;;5014233;28;20057;-95
2022/06/27 04:38:31;;;;;;;11.68;8.60;;;16.90;99.90;;;;;;5014997;28;20041;-95
2022/06/27 04:41:03;;;;;;;10.07;7.93;;;17.00;99.90;;;;;;5014148;28;20073;-95
2022/06/27 04:43:34;;;;;;;10.48;8.45;;;17.10;99.90;;;;;;5016404;28;20048;-96
2022/06/27 04:46:56;;;;;;;10.93;8.80;;;17.10;99.90;;;;;;5055931;23;20139;-93
2022/06/27 04:49:10;;;;;;;9.95;8.07;;;17.10;99.90;;;;;;5036429;28;20061;-92
2022/06/27 04:51:36;;;;;;;11.88;8.57;;;17.00;99.90;;;;;;5036613;28;20041;-92
2022/06/27 04:54:02;;;;;;;12.15;7.93;;;17.10;99.90;;;;;;5036258;28;20052;-91
2022/06/27 04:59:17;;;;;;;;;;;;;;;;;;;;;
2022/06/27 05:02:29;;;;;;;9.00;5.55;;;17.10;99.90;;;;;;5073666;28;20045;-93
2022/06/27 05:04:55;;;;;;;7.72;5.35;;;17.10;99.90;;;;;;5008960;28;20201;-92
2022/06/27 05:08:07;;;;;;;;;;;;;;;;;;;;;
2022/06/27 05:29:28;;;;;;;6.95;4.00;;;17.40;99.90;;;;;;4992127;28;20040;-93
2022/06/27 05:36:00;;;;;;;5.88;3.65;;;17.40;99.90;;;;;;4974606;28;20054;-93
2022/06/27 06:31:51;;;;;;;;;;;;;;;;;;;;;
2022/06/27 06:35:47;;;;;;;4.80;1.70;;;18.10;99.90;;;;;;4932140;29;20118;-92
2022/06/27 06:43:04;;;;;;;2.97;1.92;;;18.10;99.90;;;;;;5029880;28;20272;-93
2022/06/27 08:42:48;;;;;;;4.60;3.10;;;18.50;99.90;;;;;;4914863;29;20135;-91
2022/06/27 08:45:16;;;;;;;4.15;2.70;;;18.60;99.90;;;;;;4899955;29;20059;-91
2022/06/27 08:47:43;;;;;;;3.90;2.50;;;18.60;99.90;;;;;;4900792;29;20070;-90
2022/06/27 08:50:14;;;;;;;4.82;2.90;;;18.80;99.90;;;;;;4899866;29;20055;-91
2022/06/27 08:52:41;;;;;;;3.72;2.83;;;18.80;99.90;;;;;;4901297;29;20040;-92
2022/06/27 08:55:11;;;;;;;4.60;3.15;;;18.90;99.90;;;;;;4900656;29;20052;-93
2022/06/27 08:57:51;;;;;;;6.72;3.20;;;18.80;99.90;;;;;;4900239;29;20067;-92
2022/06/27 09:00:18;;;;;;;5.20;3.40;;;18.90;99.90;;;;;;4900202;29;20465;-91
2022/06/27 09:02:44;;;;;;;4.45;2.80;;;18.70;99.90;;;;;;4883617;29;20052;-93
2022/06/27 09:05:18;;;;;;;4.97;2.97;;;18.90;99.90;;;;;;4899954;29;20112;-92
2022/06/27 09:07:56;;;;;;;5.20;2.97;;;18.90;99.90;;;;;;4884381;29;20044;-91
2022/06/27 09:10:23;;;;;;;5.47;3.30;;;19.10;99.90;;;;;;4899215;29;20607;-92
2022/06/27 09:12:56;;;;;;;3.80;2.72;;;19.10;99.90;;;;;;4884118;29;20055;-89
2022/06/27 09:15:26;;;;;;;4.28;2.45;;;19.20;99.90;;;;;;4899049;29;20166;-92
2022/06/27 09:20:52;;;;;;;4.45;2.63;;;19.30;99.90;;;;;;4901430;29;20044;-92
2022/06/27 09:23:47;;;;;;;3.17;2.30;;;19.40;99.90;;;;;;4900647;29;20094;-92
2022/06/27 09:26:50;;;;;;;4.35;2.42;;;19.50;99.90;;;;;;4901127;29;20135;-93
2022/06/27 09:29:14;;;;;;;4.22;2.35;;;19.60;99.90;;;;;;4897494;29;20438;-92
2022/06/27 09:31:42;;;;;;;4.55;2.55;;;19.70;99.90;;;;;;4900440;29;20064;-93
2022/06/27 09:34:14;;;;;;;6.65;3.10;;;19.70;99.90;;;;;;4900186;29;20126;-93
2022/06/27 09:36:48;;;;;;;3.70;2.50;;;19.70;99.90;;;;;;4900304;29;20590;-92
2022/06/27 09:39:22;;;;;;;5.05;2.38;;;19.70;99.90;;;;;;4884118;29;20048;-93
2022/06/27 09:41:54;;;;;;;5.03;2.92;;;19.60;99.90;;;;;;4899934;29;20108;-93
2022/06/27 09:44:24;;;;;;;4.38;3.25;;;19.50;99.90;;;;;;4900338;29;20052;-93
2022/06/27 09:46:58;;;;;;;5.57;3.35;;;19.40;99.90;;;;;;4899657;29;20044;-92
2022/06/27 09:49:27;;;;;;;6.65;3.85;;;19.30;99.90;;;;;;4899804;29;20080;-92
2022/06/27 09:51:54;;;;;;;5.30;3.25;;;19.20;99.90;;;;;;4899510;29;20046;-92
2022/06/27 09:54:22;;;;;;;5.85;3.17;;;19.20;99.90;;;;;;4900111;29;20417;-92
2022/06/27 09:56:50;;;;;;;5.95;3.28;;;19.10;99.90;;;;;;4899888;29;20048;-92
2022/06/27 09:59:31;;;;;;;6.70;3.53;;;19.10;99.90;;;;;;4900396;29;20044;-95
2022/06/27 10:05:03;;;;;;;6.72;3.58;;;19.20;99.90;;;;;;5397277;23;20026;-96
2022/06/27 10:11:28;;;;;;;6.70;4.05;;;19.40;99.90;;;;;;4855797;29;20059;-96
2022/06/27 10:14:26;;;;;;;5.45;3.65;;;19.50;99.90;;;;;;4847346;29;20052;-96
2022/06/27 10:17:04;;;;;;;6.85;4.30;;;19.50;99.90;;;;;;4926196;29;20092;-96
2022/06/27 10:19:31;;;;;;;6.93;4.28;;;19.50;99.90;;;;;;4907631;29;20087;-96
2022/06/27 10:22:03;;;;;;;6.40;4.22;;;19.60;99.90;;;;;;4889143;29;20040;-96
2022/06/27 10:24:33;;;;;;;8.00;3.90;;;19.70;99.90;;;;;;4890466;29;20110;-96
2022/06/27 10:27:02;;;;;;;8.13;4.22;;;19.80;99.90;;;;;;4886629;29;20095;-96
2022/06/27 10:29:39;;;;;;;9.38;3.80;;;19.90;99.90;;;;;;4884577;29;20551;-96
2022/06/27 10:32:34;;;;;;;6.88;3.80;;;19.90;99.90;;;;;;4886777;29;20048;-96
2022/06/27 10:35:15;;;;;;;7.30;4.80;;;19.90;99.90;;;;;;4887096;29;20044;-96
2022/06/27 10:37:45;;;;;;;8.00;4.05;;;20.00;99.90;;;;;;4890417;29;20048;-96
2022/06/27 10:40:20;;;;;;;7.90;4.10;;;20.00;99.90;;;;;;4887627;29;20083;-95
2022/06/27 10:42:58;;;;;;;6.65;4.30;;;20.00;99.90;;;;;;4884903;29;20155;-96
2022/06/27 10:45:34;;;;;;;5.43;3.65;;;20.10;99.90;;;;;;4901322;29;20142;-96
2022/06/27 10:48:34;;;;;;;6.90;4.13;;;20.20;99.90;;;;;;4885607;29;20051;-96
2022/06/27 10:51:26;;;;;;;7.35;4.47;;;20.30;99.90;;;;;;4899071;29;20488;-95
2022/06/27 10:54:12;;;;;;;6.28;4.32;;;20.30;99.90;;;;;;4886910;29;20075;-96
2022/06/27 10:56:51;;;;;;;6.38;3.65;;;20.30;99.90;;;;;;4898879;29;20059;-95
2022/06/27 10:59:17;;;;;;;5.75;3.85;;;20.40;99.90;;;;;;4898598;29;20052;-95
2022/06/27 11:01:49;;;;;;;6.53;4.18;;;20.40;99.90;;;;;;4882618;29;20048;-95
2022/06/27 11:04:27;;;;;;;5.50;3.90;;;20.40;99.90;;;;;;4898897;29;20063;-96
2022/06/27 11:06:59;;;;;;;6.60;4.55;;;20.50;99.90;;;;;;4882800;29;20063;-96
2022/06/27 11:09:46;;;;;;;5.93;3.90;;;20.60;99.90;;;;;;4900200;29;20040;-95
2022/06/27 11:12:14;;;;;;;6.50;3.97;;;20.90;99.90;;;;;;4884205;29;20135;-96
2022/06/27 11:14:48;;;;;;;6.13;4.35;;;21.10;99.90;;;;;;4898460;29;20527;-96
2022/06/27 11:17:34;;;;;;;6.35;3.83;;;21.20;99.90;;;;;;4912562;29;20052;-95
2022/06/27 11:20:18;;;;;;;8.35;4.45;;;21.30;99.90;;;;;;4893940;29;20104;-96
2022/06/27 11:22:49;;;;;;;7.28;4.22;;;21.30;99.90;;;;;;4895673;29;20048;-96
2022/06/27 11:25:18;;;;;;;7.57;4.40;;;21.30;99.90;;;;;;4895277;29;20047;-96
2022/06/27 11:27:52;;;;;;;10.82;4.00;;;21.30;99.90;;;;;;4897350;29;20074;-96
2022/06/27 11:33:20;;;;;;;7.40;4.18;;;21.30;99.90;;;;;;4908243;29;20146;-96
2022/06/27 11:35:47;;;;;;;6.43;4.15;;;21.30;99.90;;;;;;4892885;29;20064;-96
2022/06/27 11:38:27;;;;;;;5.15;4.20;;;21.30;99.90;;;;;;4893390;29;20048;-96
2022/06/27 11:41:07;;;;;;;6.22;4.20;;;21.20;99.90;;;;;;4889812;29;20107;-96
2022/06/27 11:43:58;;;;;;;5.43;3.50;;;21.10;99.90;;;;;;4893467;29;20059;-96
2022/06/27 11:46:33;;;;;;;6.10;3.80;;;21.00;99.90;;;;;;4894079;29;20058;-96
2022/06/27 11:49:06;;;;;;;6.10;3.65;;;20.80;99.90;;;;;;4900340;29;20062;-94
2022/06/27 11:51:35;;;;;;;7.35;3.80;;;20.70;99.90;;;;;;4898338;29;20048;-96
2022/06/27 11:54:05;;;;;;;5.80;3.75;;;20.60;99.90;;;;;;4886947;29;20044;-95
2022/06/27 11:56:37;;;;;;;4.82;3.40;;;20.50;99.90;;;;;;4887818;29;20044;-96
2022/06/27 11:59:05;;;;;;;6.50;3.50;;;20.40;99.90;;;;;;4891187;29;20044;-95
2022/06/27 12:01:31;;;;;;;6.63;3.80;;;20.40;99.90;;;;;;4886737;29;20040;-95
2022/06/27 12:04:10;;;;;;;8.30;3.92;;;20.40;99.90;;;;;;4886565;29;20079;-95
2022/06/27 12:06:50;;;;;;;6.20;3.55;;;20.40;99.90;;;;;;4885828;29;20099;-96
2022/06/27 12:09:16;;;;;;;9.50;3.60;;;20.40;99.90;;;;;;4889176;29;20052;-96
2022/06/27 12:11:49;;;;;;;8.43;3.90;;;20.30;99.90;;;;;;4888493;29;20112;-95
2022/06/27 12:14:19;;;;;;;6.82;4.10;;;20.40;99.90;;;;;;4886084;29;20044;-96
2022/06/27 12:16:47;;;;;;;4.93;3.88;;;20.40;99.90;;;;;;4886456;29;20142;-96
2022/06/27 12:19:14;;;;;;;5.53;3.63;;;20.30;99.90;;;;;;4886691;29;20058;-96
2022/06/27 12:21:41;;;;;;;5.95;4.05;;;20.30;99.90;;;;;;4886129;29;20500;-95
2022/06/27 12:24:08;;;;;;;6.88;4.15;;;20.30;99.90;;;;;;4886230;29;20238;-96
2022/06/27 12:26:34;;;;;;;8.85;4.00;;;20.30;99.90;;;;;;4888765;29;20382;-94
2022/06/27 12:29:03;;;;;;;11.77;4.50;;;20.30;99.90;;;;;;4886854;29;20131;-95
2022/06/27 12:31:29;;;;;;;6.30;4.28;;;20.40;99.90;;;;;;4885621;29;20401;-96
2022/06/27 12:33:58;;;;;;;9.43;4.10;;;20.40;99.90;;;;;;4886814;29;20048;-95
2022/06/27 12:36:23;;;;;;;8.45;4.22;;;20.50;99.90;;;;;;4886873;29;20051;-96
2022/06/27 12:38:54;;;;;;;8.40;4.15;;;20.50;99.90;;;;;;4886164;29;20547;-96
2022/06/27 12:41:20;;;;;;;9.25;4.38;;;20.60;99.90;;;;;;4897373;29;20044;-96
2022/06/27 12:43:51;;;;;;;7.43;4.68;;;20.70;99.90;;;;;;4888774;29;20048;-96
2022/06/27 12:46:21;;;;;;;9.02;4.05;;;20.90;99.90;;;;;;4890196;29;20067;-96
2022/06/27 12:49:09;;;;;;;7.93;4.70;;;20.80;99.90;;;;;;4888159;29;20048;-96
2022/06/27 12:52:22;;;;;;;11.23;5.50;;;20.80;99.90;;;;;;4883394;29;20154;-96
2022/06/27 12:55:18;;;;;;;11.27;5.20;;;20.90;99.90;;;;;;4806123;29;20052;-96
2022/06/27 13:05:02;;;;;;;;;;;;;;;;;;;;;
2022/06/27 13:12:21;;;;;;;;;;;;;;;;;;;;;
2022/06/27 13:23:51;;;;;;;9.65;5.10;;;20.40;99.90;;;;;;4899549;29;20056;-89
2022/06/27 13:27:10;;;;;;;7.88;5.38;;;20.30;99.90;;;;;;4883787;29;20052;-90
2022/06/27 13:29:39;;;;;;;6.95;5.35;;;20.40;99.90;;;;;;4879444;29;20053;-90
2022/06/27 13:32:11;;;;;;;6.95;5.40;;;20.30;99.90;;;;;;4864369;29;20044;-89
2022/06/27 13:34:39;;;;;;;7.57;5.47;;;20.40;99.90;;;;;;4865978;29;20044;-90
2022/06/27 13:37:19;;;;;;;9.18;6.00;;;20.30;99.90;;;;;;4866223;29;20507;-88
2022/06/27 13:39:45;;;;;;;11.93;5.60;;;20.30;99.90;;;;;;4865570;29;20895;-90
2022/06/27 13:42:43;;;;;;;7.88;6.53;;;20.30;99.90;;;;;;4864288;29;20139;-91
2022/06/27 13:45:14;;;;;;;7.45;6.22;;;20.40;99.90;;;;;;4862304;29;20124;-90
2022/06/27 13:47:55;;;;;;;9.13;6.03;;;20.30;99.90;;;;;;4865894;29;20172;-92
2022/06/27 13:50:24;;;;;;;7.80;6.43;;;20.30;99.90;;;;;;4864948;29;20044;-89
2022/06/27 13:52:51;;;;;;;10.07;6.50;;;20.40;99.90;;;;;;4882806;29;20404;-90
2022/06/27 13:55:17;;;;;;;11.48;7.07;;;20.40;99.90;;;;;;4883386;29;20060;-89
2022/06/27 13:57:45;;;;;;;10.85;6.63;;;20.40;99.90;;;;;;4883285;29;20048;-89
2022/06/27 14:00:12;;;;;;;7.93;5.80;;;20.40;99.90;;;;;;4883622;29;20143;-88
2022/06/27 14:02:38;;;;;;;9.50;6.03;;;20.40;99.90;;;;;;4882883;29;20052;-90
2022/06/27 14:05:05;;;;;;;7.80;5.88;;;20.30;99.90;;;;;;4883047;29;20495;-89
2022/06/27 14:07:39;;;;;;;8.32;6.30;;;20.30;99.90;;;;;;4883383;29;20115;-90
2022/06/27 14:10:25;;;;;;;7.95;6.18;;;20.40;99.90;;;;;;4885495;29;20500;-90
2022/06/27 14:13:16;;;;;;;11.23;6.93;;;20.40;99.90;;;;;;4883763;29;20397;-91
2022/06/27 14:15:51;;;;;;;7.53;5.90;;;20.40;99.90;;;;;;4881619;29;20060;-89
2022/06/27 14:18:33;;;;;;;;;;;;;;;;;;;;;
2022/06/27 14:22:13;;;;;;;8.05;6.43;;;20.20;99.90;;;;;;4913196;29;20836;-91
2022/06/27 14:25:13;;;;;;;7.10;6.05;;;20.10;99.90;;;;;;4850179;29;20052;-90
2022/06/27 14:27:52;;;;;;;;;;;;;;;;;;;;;
2022/06/27 14:31:04;;;;;;;8.13;5.55;;;20.10;99.90;;;;;;4898103;29;20052;-91
2022/06/27 14:33:32;;;;;;;9.35;5.70;;;20.00;99.90;;;;;;4883380;29;20051;-91
2022/06/27 14:35:58;;;;;;;10.02;5.93;;;20.10;99.90;;;;;;4882984;29;20048;-91
2022/06/27 14:38:24;;;;;;;7.82;5.32;;;20.10;99.90;;;;;;4883876;29;20303;-91
2022/06/27 14:40:50;;;;;;;7.75;5.13;;;20.10;99.90;;;;;;4875592;29;20485;-92
2022/06/27 14:43:16;;;;;;;7.43;4.50;;;20.10;99.90;;;;;;4864214;29;20052;-88
2022/06/27 14:45:41;;;;;;;8.77;4.05;;;20.10;99.90;;;;;;4864411;29;20196;-90
2022/06/27 14:48:07;;;;;;;6.03;3.88;;;20.10;99.90;;;;;;4864008;29;20408;-90
2022/06/27 14:50:33;;;;;;;5.53;3.80;;;20.10;99.90;;;;;;4863832;29;20238;-90
2022/06/27 14:53:02;;;;;;;6.72;4.43;;;20.10;99.90;;;;;;4864149;29;20048;-91
2022/06/27 14:55:28;;;;;;;5.47;4.00;;;20.10;99.90;;;;;;4864311;29;20485;-92
2022/06/27 14:57:54;;;;;;;5.82;4.10;;;20.20;99.90;;;;;;4864559;29;20047;-91
2022/06/27 15:00:58;;;;;;;7.72;4.00;;;20.30;99.90;;;;;;4864062;29;20557;-91
2022/06/27 15:13:24;;;;;;;7.13;4.05;;;21.00;99.90;;;;;;5031194;23;20048;-91
2022/06/27 15:15:49;;;;;;;6.65;4.93;;;21.10;99.90;;;;;;4881982;29;20084;-89
2022/06/27 15:18:15;;;;;;;8.90;5.22;;;21.00;99.90;;;;;;4881868;29;20079;-90
2022/06/27 15:20:57;;;;;;;;;;;;;;;;;;;;;
2022/06/27 15:35:00;;;;;;;7.72;5.20;;;20.60;99.90;;;;;;4855587;29;20125;-92
2022/06/27 15:54:42;;;;;;;;;;;20.20;99.90;;;;;;4912449;29;20048;-91
2022/06/27 16:03:21;;;;;;;16.58;6.90;;;19.80;99.90;;;;;;4913086;29;20067;-90
2022/06/27 16:06:16;;;;;;;10.63;7.10;;;19.60;99.90;;;;;;4898152;29;20473;-92
2022/06/27 16:09:40;;;;;;;8.32;6.35;;;19.80;99.90;;;;;;4878630;29;20500;-93
2022/06/27 16:45:01;;;;;;;12.13;6.65;;;19.10;99.90;;;;;;4841282;29;20552;-91
2022/06/27 16:52:08;;;;;;;13.13;7.85;;;19.00;99.90;;;;;;4805266;29;20050;-92
2022/06/27 16:55:53;;;;;;;;;;;;;;;;;;;;;
2022/06/27 16:58:38;;;;;;;6.22;3.38;;;18.60;99.90;;;;;;4788693;29;20186;-91
2022/06/27 17:10:18;;;;;;;7.32;2.17;;;17.50;99.90;;;;;;4835451;29;20049;-96
2022/06/27 17:16:49;;;;;;;11.35;2.08;;;17.00;99.90;;;;;;4796471;29;20047;-96
2022/06/27 21:19:34;;;;;;;7.40;3.92;;;15.20;99.90;;;;;;3937185;23;21641;-96
